Time,TemperatureF,DewpointF,PressureIn,WindDirection,WindDirectionDegrees,WindSpeedMPH,WindSpeedGustMPH,Humidity,HourlyPrecipIn,Conditions,Clouds,dailyrainin,SoftwareType,DateUTC
2013-02-20 00:00:00,25.0,-99.9,29.76,SW,230,16.0,26.0,-999,-99.99,,,-99.99,,2013-02-20 05:00:00,
2013-02-20 00:22:00,25.0,-99.9,29.76,SW,230,16.0,26.0,-999,-99.99,,,-99.99,,2013-02-20 05:22:00,
2013-02-20 00:32:00,25.0,-99.9,29.76,SW,230,16.0,26.0,-999,-99.99,,,-99.99,,2013-02-20 05:32:00,
2013-02-20 00:43:00,25.0,-99.9,29.76,SW,230,16.0,26.0,-999,-99.99,,,-99.99,,2013-02-20 05:43:00,
2013-02-20 00:52:00,25.0,-99.9,29.76,SW,230,16.0,26.0,-999,-99.99,,,-99.99,,2013-02-20 05:52:00,
2013-02-20 01:00:00,24.0,-99.9,29.76,WSW,250,18.0,29.0,-999,-99.99,,,-99.99,,2013-02-20 06:00:00,
2013-02-20 01:22:00,24.0,-99.9,29.76,WSW,250,18.0,29.0,-999,-99.99,,,-99.99,,2013-02-20 06:22:00,
2013-02-20 01:32:00,24.0,-99.9,29.76,WSW,250,18.0,29.0,-999,-99.99,,,-99.99,,2013-02-20 06:32:00,
2013-02-20 01:42:00,24.0,-99.9,29.76,WSW,250,18.0,29.0,-999,-99.99,,,-99.99,,2013-02-20 06:42:00,
2013-02-20 01:52:00,24.0,-99.9,29.76,WSW,250,18.0,29.0,-999,-99.99,,,-99.99,,2013-02-20 06:52:00,
2013-02-20 02:00:00,24.0,-99.9,29.79,WSW,240,18.0,28.0,-999,-99.99,,,-99.99,,2013-02-20 07:00:00,
2013-02-20 02:22:00,24.0,-99.9,29.79,WSW,240,18.0,28.0,-999,-99.99,,,-99.99,,2013-02-20 07:22:00,
2013-02-20 02:32:00,24.0,-99.9,29.79,WSW,240,18.0,28.0,-999,-99.99,,,-99.99,,2013-02-20 07:32:00,
2013-02-20 02:42:00,24.0,-99.9,29.79,WSW,240,18.0,28.0,-999,-99.99,,,-99.99,,2013-02-20 07:42:00,
2013-02-20 02:52:00,24.0,-99.9,29.79,WSW,240,18.0,28.0,-999,-99.99,,,-99.99,,2013-02-20 07:52:00,
2013-02-20 03:00:00,23.0,-99.9,29.80,WSW,240,16.0,26.0,-999,-99.99,,,-99.99,,2013-02-20 08:00:00,
2013-02-20 03:22:00,23.0,-99.9,29.80,WSW,240,16.0,26.0,-999,-99.99,,,-99.99,,2013-02-20 08:22:00,
2013-02-20 03:32:00,23.0,-99.9,29.80,WSW,240,16.0,26.0,-999,-99.99,,,-99.99,,2013-02-20 08:32:00,
2013-02-20 03:42:00,23.0,-99.9,29.80,WSW,240,16.0,26.0,-999,-99.99,,,-99.99,,2013-02-20 08:42:00,
2013-02-20 03:52:00,23.0,-99.9,29.80,WSW,240,16.0,26.0,-999,-99.99,,,-99.99,,2013-02-20 08:52:00,
2013-02-20 04:00:00,23.0,-99.9,29.81,WSW,250,21.0,29.0,-999,-99.99,,,-99.99,,2013-02-20 09:00:00,
2013-02-20 04:22:00,23.0,-99.9,29.81,WSW,250,21.0,29.0,-999,-99.99,,,-99.99,,2013-02-20 09:22:00,
2013-02-20 04:32:00,23.0,-99.9,29.81,WSW,250,21.0,29.0,-999,-99.99,,,-99.99,,2013-02-20 09:32:00,
2013-02-20 04:42:00,23.0,-99.9,29.81,WSW,250,21.0,29.0,-999,-99.99,,,-99.99,,2013-02-20 09:42:00,
2013-02-20 04:52:00,23.0,-99.9,29.81,WSW,250,21.0,29.0,-999,-99.99,,,-99.99,,2013-02-20 09:52:00,
2013-02-20 05:00:00,22.0,-99.9,29.82,WSW,250,18.0,28.0,-999,-99.99,,,-99.99,,2013-02-20 10:00:00,
2013-02-20 05:22:00,22.0,-99.9,29.82,WSW,250,18.0,28.0,-999,-99.99,,,-99.99,,2013-02-20 10:22:00,
2013-02-20 05:32:00,22.0,-99.9,29.82,WSW,250,18.0,28.0,-999,-99.99,,,-99.99,,2013-02-20 10:32:00,
2013-02-20 05:42:00,22.0,-99.9,29.82,WSW,250,18.0,28.0,-999,-99.99,,,-99.99,,2013-02-20 10:42:00,
2013-02-20 05:52:00,22.0,-99.9,29.82,WSW,250,18.0,28.0,-999,-99.99,,,-99.99,,2013-02-20 10:52:00,
2013-02-20 06:00:00,23.0,-99.9,29.83,WSW,250,24.0,33.0,-999,-99.99,,,-99.99,,2013-02-20 11:00:00,
2013-02-20 06:22:00,23.0,-99.9,29.83,WSW,250,24.0,33.0,-999,-99.99,,,-99.99,,2013-02-20 11:22:00,
2013-02-20 06:32:00,23.0,-99.9,29.83,WSW,250,24.0,33.0,-999,-99.99,,,-99.99,,2013-02-20 11:32:00,
2013-02-20 06:42:00,23.0,-99.9,29.83,WSW,250,24.0,33.0,-999,-99.99,,,-99.99,,2013-02-20 11:42:00,
2013-02-20 06:52:00,23.0,-99.9,29.83,WSW,250,24.0,33.0,-999,-99.99,,,-99.99,,2013-02-20 11:52:00,
2013-02-20 07:00:00,22.0,-99.9,29.84,WSW,250,21.0,30.0,-999,-99.99,,,-99.99,,2013-02-20 12:00:00,
2013-02-20 07:22:00,22.0,-99.9,29.84,WSW,250,21.0,30.0,-999,-99.99,,,-99.99,,2013-02-20 12:22:00,
2013-02-20 07:32:00,22.0,-99.9,29.84,WSW,250,21.0,30.0,-999,-99.99,,,-99.99,,2013-02-20 12:32:00,
2013-02-20 07:42:00,22.0,-99.9,29.84,WSW,250,21.0,30.0,-999,-99.99,,,-99.99,,2013-02-20 12:42:00,
2013-02-20 07:53:00,22.0,-99.9,29.84,WSW,250,21.0,30.0,-999,-99.99,,,-99.99,,2013-02-20 12:53:00,
2013-02-20 08:00:00,22.0,-99.9,29.87,WSW,240,21.0,28.0,-999,-99.99,,,-99.99,,2013-02-20 13:00:00,
2013-02-20 08:22:00,22.0,-99.9,29.87,WSW,240,21.0,28.0,-999,-99.99,,,-99.99,,2013-02-20 13:22:00,
2013-02-20 08:32:00,22.0,-99.9,29.87,WSW,240,21.0,28.0,-999,-99.99,,,-99.99,,2013-02-20 13:32:00,
2013-02-20 08:42:00,22.0,-99.9,29.87,WSW,240,21.0,28.0,-999,-99.99,,,-99.99,,2013-02-20 13:42:00,
2013-02-20 08:52:00,22.0,-99.9,29.87,WSW,240,21.0,28.0,-999,-99.99,,,-99.99,,2013-02-20 13:52:00,
2013-02-20 09:00:00,22.0,-99.9,29.88,WSW,240,21.0,31.0,-999,-99.99,,,-99.99,,2013-02-20 14:00:00,
2013-02-20 09:22:00,22.0,-99.9,29.88,WSW,240,21.0,31.0,-999,-99.99,,,-99.99,,2013-02-20 14:22:00,
2013-02-20 09:32:00,22.0,-99.9,29.88,WSW,240,21.0,31.0,-999,-99.99,,,-99.99,,2013-02-20 14:32:00,
2013-02-20 09:42:00,22.0,-99.9,29.88,WSW,240,21.0,31.0,-999,-99.99,,,-99.99,,2013-02-20 14:42:00,
2013-02-20 09:52:00,22.0,-99.9,29.88,WSW,240,21.0,31.0,-999,-99.99,,,-99.99,,2013-02-20 14:52:00,
2013-02-20 10:00:00,22.0,-99.9,29.89,WSW,250,22.0,30.0,-999,-99.99,,,-99.99,,2013-02-20 15:00:00,
2013-02-20 10:22:00,22.0,-99.9,29.89,WSW,250,22.0,30.0,-999,-99.99,,,-99.99,,2013-02-20 15:22:00,
2013-02-20 10:32:00,22.0,-99.9,29.89,WSW,250,22.0,30.0,-999,-99.99,,,-99.99,,2013-02-20 15:32:00,
2013-02-20 10:42:00,22.0,-99.9,29.89,WSW,250,22.0,30.0,-999,-99.99,,,-99.99,,2013-02-20 15:42:00,
2013-02-20 10:52:00,22.0,-99.9,29.89,WSW,250,22.0,30.0,-999,-99.99,,,-99.99,,2013-02-20 15:52:00,
2013-02-20 11:00:00,22.0,-99.9,29.91,WSW,240,20.0,29.0,-999,-99.99,,,-99.99,,2013-02-20 16:00:00,
2013-02-20 11:22:00,22.0,-99.9,29.91,WSW,240,20.0,29.0,-999,-99.99,,,-99.99,,2013-02-20 16:22:00,
2013-02-20 11:32:00,22.0,-99.9,29.91,WSW,240,20.0,29.0,-999,-99.99,,,-99.99,,2013-02-20 16:32:00,
2013-02-20 11:42:00,22.0,-99.9,29.91,WSW,240,20.0,29.0,-999,-99.99,,,-99.99,,2013-02-20 16:42:00,
2013-02-20 11:52:00,22.0,-99.9,29.91,WSW,240,20.0,29.0,-999,-99.99,,,-99.99,,2013-02-20 16:52:00,
2013-02-20 12:00:00,23.0,-99.9,29.92,WSW,250,17.0,32.0,-999,-99.99,,,-99.99,,2013-02-20 17:00:00,
2013-02-20 12:22:00,23.0,-99.9,29.92,WSW,250,17.0,32.0,-999,-99.99,,,-99.99,,2013-02-20 17:22:00,
2013-02-20 12:32:00,23.0,-99.9,29.92,WSW,250,17.0,32.0,-999,-99.99,,,-99.99,,2013-02-20 17:32:00,
2013-02-20 12:42:00,23.0,-99.9,29.92,WSW,250,17.0,32.0,-999,-99.99,,,-99.99,,2013-02-20 17:42:00,
2013-02-20 12:52:00,23.0,-99.9,29.92,WSW,250,17.0,32.0,-999,-99.99,,,-99.99,,2013-02-20 17:52:00,
2013-02-20 13:00:00,23.0,-99.9,29.93,West,260,20.0,31.0,-999,-99.99,,,-99.99,,2013-02-20 18:00:00,
2013-02-20 13:22:00,23.0,-99.9,29.93,West,260,20.0,31.0,-999,-99.99,,,-99.99,,2013-02-20 18:22:00,
2013-02-20 13:32:00,23.0,-99.9,29.93,West,260,20.0,31.0,-999,-99.99,,,-99.99,,2013-02-20 18:32:00,
2013-02-20 13:42:00,23.0,-99.9,29.93,West,260,20.0,31.0,-999,-99.99,,,-99.99,,2013-02-20 18:42:00,
2013-02-20 13:52:00,23.0,-99.9,29.93,West,260,20.0,31.0,-999,-99.99,,,-99.99,,2013-02-20 18:52:00,
2013-02-20 18:00:00,23.0,-99.9,30.05,WSW,250,14.0,33.0,-999,-99.99,,,-99.99,,2013-02-20 23:00:00,
2013-02-20 18:22:00,23.0,-99.9,30.05,WSW,250,14.0,33.0,-999,-99.99,,,-99.99,,2013-02-20 23:22:00,
2013-02-20 18:32:00,23.0,-99.9,30.05,WSW,250,14.0,33.0,-999,-99.99,,,-99.99,,2013-02-20 23:32:00,
2013-02-20 18:43:00,23.0,-99.9,30.05,WSW,250,14.0,33.0,-999,-99.99,,,-99.99,,2013-02-20 23:43:00,
2013-02-20 18:53:00,23.0,-99.9,30.05,WSW,250,14.0,33.0,-999,-99.99,,,-99.99,,2013-02-20 23:53:00,
2013-02-20 19:00:00,24.0,-99.9,30.06,West,270,29.0,38.0,-999,-99.99,,,-99.99,,2013-02-21 00:00:00,
2013-02-20 19:22:00,24.0,-99.9,30.06,West,270,29.0,38.0,-999,-99.99,,,-99.99,,2013-02-21 00:22:00,
2013-02-20 19:32:00,24.0,-99.9,30.06,West,270,29.0,38.0,-999,-99.99,,,-99.99,,2013-02-21 00:32:00,
2013-02-20 19:42:00,24.0,-99.9,30.06,West,270,29.0,38.0,-999,-99.99,,,-99.99,,2013-02-21 00:42:00,
2013-02-20 19:53:00,24.0,-99.9,30.06,West,270,29.0,38.0,-999,-99.99,,,-99.99,,2013-02-21 00:53:00,
2013-02-20 20:00:00,23.0,-99.9,30.08,West,260,28.0,43.0,-999,-99.99,,,-99.99,,2013-02-21 01:00:00,
2013-02-20 20:22:00,23.0,-99.9,30.08,West,260,28.0,43.0,-999,-99.99,,,-99.99,,2013-02-21 01:22:00,
2013-02-20 20:32:00,23.0,-99.9,30.08,West,260,28.0,43.0,-999,-99.99,,,-99.99,,2013-02-21 01:32:00,
2013-02-20 20:42:00,23.0,-99.9,30.08,West,260,28.0,43.0,-999,-99.99,,,-99.99,,2013-02-21 01:42:00,
2013-02-20 20:52:00,23.0,-99.9,30.08,West,260,28.0,43.0,-999,-99.99,,,-99.99,,2013-02-21 01:52:00,
2013-02-20 21:00:00,23.0,-99.9,30.08,West,270,29.0,37.0,-999,-99.99,,,-99.99,,2013-02-21 02:00:00,
2013-02-20 21:22:00,23.0,-99.9,30.08,West,270,29.0,37.0,-999,-99.99,,,-99.99,,2013-02-21 02:22:00,
2013-02-20 21:32:00,23.0,-99.9,30.08,West,270,29.0,37.0,-999,-99.99,,,-99.99,,2013-02-21 02:32:00,
2013-02-20 21:42:00,23.0,-99.9,30.08,West,270,29.0,37.0,-999,-99.99,,,-99.99,,2013-02-21 02:42:00,
2013-02-20 21:52:00,23.0,-99.9,30.08,West,270,29.0,37.0,-999,-99.99,,,-99.99,,2013-02-21 02:52:00,
2013-02-20 22:00:00,24.0,-99.9,30.08,West,280,32.0,40.0,-999,-99.99,,,-99.99,,2013-02-21 03:00:00,
2013-02-20 22:22:00,24.0,-99.9,30.08,West,280,32.0,40.0,-999,-99.99,,,-99.99,,2013-02-21 03:22:00,
2013-02-20 22:32:00,24.0,-99.9,30.08,West,280,32.0,40.0,-999,-99.99,,,-99.99,,2013-02-21 03:32:00,
2013-02-20 22:42:00,24.0,-99.9,30.08,West,280,32.0,40.0,-999,-99.99,,,-99.99,,2013-02-21 03:42:00,
2013-02-20 22:52:00,24.0,-99.9,30.08,West,280,32.0,40.0,-999,-99.99,,,-99.99,,2013-02-21 03:52:00,
2013-02-20 23:00:00,24.0,-99.9,30.08,West,280,28.0,38.0,-999,-99.99,,,-99.99,,2013-02-21 04:00:00,
2013-02-20 23:22:00,24.0,-99.9,30.08,West,280,28.0,38.0,-999,-99.99,,,-99.99,,2013-02-21 04:22:00,
2013-02-20 23:32:00,24.0,-99.9,30.08,West,280,28.0,38.0,-999,-99.99,,,-99.99,,2013-02-21 04:32:00,
2013-02-20 23:42:00,24.0,-99.9,30.08,West,280,28.0,38.0,-999,-99.99,,,-99.99,,2013-02-21 04:42:00,
2013-02-20 23:52:00,24.0,-99.9,30.08,West,280,28.0,38.0,-999,-99.99,,,-99.99,,2013-02-21 04:52:00,